Duck River, Tennessee
Current Conditions -  °F | °C
As of 3:53 AM on Monday 26 Jan 2015 (Local Time) from KBNA Reporting Station
Overcast Overcast  
Wind Chill: 26°   Ceiling: 800
Heat Index: 35°   Visibility: 10mi
Dew Point: 32°   Wind: 15mph
Humidity: 89%   Direction: 330°NNW
Pressure: 29.87"   Gusts: 26mph
Location:  35.72°N, 87.28°W
Report Text: KBNA 260953Z 33013G23KT 10SM OVC008 02/00 A2987 RMK AO2 SLP115 T00170000 $
Loading
Personal Weather Stations






























Interactive Weather Map New forecast layout! Learn more

10-Day Weather Forecast

Advertisements
Track Severe Weather on mobile